Paul, Nebraska
Current Conditions -  °F | °C
As of 7:15 AM on Tuesday 21 Oct 2014 (Local Time) from KAFK Reporting Station
Clear Clear  
Wind Chill: 46°   Ceiling: Unl
Heat Index: 46°   Visibility: 10mi
Dew Point: 37°   Wind: 0mph
Humidity: 70%   Direction: NA
Pressure: 30.11"   Gusts: NA
Location:  40.6534°N, 95.8738°W
Report Text: KAFK 211215Z AUTO 00000KT 10SM CLR 08/03 A3011 RMK AO2 T00760025
Loading
Personal Weather Stations






























Interactive Weather Map
Tropical Storm Tracking
New forecast layout! Learn more

10-Day Weather Forecast

Advertisements
Track Severe Weather on mobile